広島空港の過去48時間の天気

広島空港 (New hiroshima)

現在時刻: 10/20 03:42 JST (10/19 18:42 UTC) 以下の時間は現地時間です。

過去48時間のMETAR気象情報
時間 風向 風速(m/s) 視程 気温(℃) 湿度(%) 気圧(hPa) 天気現象
19 22:00 北北西 6 10km以上 13 77 1020
19 21:00 4 10km以上 14 72 1020
19 20:00 5 10km以上 14 72 1019
19 19:00 5 10km以上 14 77 1019
19 18:00 北北西 4 10km以上 15 77 1018
19 17:00 北北西 4 10km以上 15 72 1017
19 16:00 3 10km以上 15 82 1017
19 15:00 3 10km以上 14 88 1017 弱いしゅう雨
19 14:00 北西 2 10km以上 15 82 1017 弱いしゅう雨
19 13:47 南西 2 10km以上 14 82 1017 しゅう雨
19 13:00 南南西 3 10km以上 16 68 1017 弱いしゅう雨
19 12:00 南西 4 10km以上 17 55 1017
19 11:00 南南西 3 10km以上 18 52 1017
19 10:00 南南東 2 10km以上 17 59 1018
19 09:00 不定 1 10km以上 15 77 1018
19 08:00 不定 1 10km以上 14 77 1018 散在した霧
19 07:00 不定 1 10km以上 11 94 1017 散在した霧
19 06:10 1 10km以上 12 88 1017 散在した霧
18 22:00 北西 2 10km以上 15 72 1016
18 21:00 北西 2 10km以上 15 77 1016
18 20:00 2 10km以上 15 77 1016
18 19:00 北西 2 10km以上 15 77 1016
18 18:00 3 10km以上 15 82 1015
18 17:44 4 10km以上 15 82 1015 弱いしゅう雨
18 17:30 北西 4 10km以上 16 72 1015 しゅう雨
18 17:03 5 10km以上 16 68 1015
18 17:00 5 10km以上 16 68 1015
18 16:32 5 10km以上 17 59 1015 弱い雷雨
18 16:00 南南西 2 10km以上 19 56 1014
18 15:48 不定 2 10km以上 19 56 1014
18 15:00 南南西 3 10km以上 20 53 1014
18 14:00 南南西 2 10km以上 21 53 1014
18 13:00 南南東 3 10km以上 19 56 1014
18 12:00 不定 2 10km以上 20 46 1015
18 11:00 2 10km以上 19 60 1015
18 10:00 不定 1 10km以上 17 68 1016
18 09:00 不定 1 10km以上 17 68 1016
18 08:00 不定 1 10km以上 15 72 1015
18 07:00 西北西 2 10km以上 14 77 1015 散在した霧
18 06:10 不定 1 10km以上 13 82 1015 部分霧
RJOA 191300Z 33012KT 9999 FEW015 SCT070 13/09 Q1020
RJOA 191200Z 35007KT 300V030 9999 FEW015 BKN090 14/09 Q1020
RJOA 191100Z 35009KT 320V020 9999 FEW015 SCT080 14/09 Q1019
RJOA 191000Z 35009KT 9999 FEW015 SCT080 14/10 Q1019
RJOA 190900Z 34007KT 9999 FEW015 BKN080 15/11 Q1018
RJOA 190800Z 34007KT 9999 FEW015 SCT050 BKN080 15/10 Q1017
RJOA 190700Z 35005KT 9999 FEW015 SCT025 BKN045 15/12 Q1017
RJOA 190600Z 35005KT 9999 -SHRA FEW008 SCT010 BKN025 14/12 Q1017
RJOA 190500Z 32003KT 230V020 9999 -SHRA FEW010 SCT015 BKN025 15/12 Q1017
RJOA 190447Z 23003KT 9999 R28/P1800N SHRA FEW010 SCT015 BKN025 14/11 Q1017 RMK 1CU010 3CU015 5CU025 A3004
RJOA 190400Z 21005KT 150V260 9999 -SHRA FEW015 SCT020 BKN035 16/10 Q1017
RJOA 190300Z 22007KT 170V270 9999 FEW020 BKN030 BKN050 17/08 Q1017
RJOA 190200Z 21006KT 120V280 9999 FEW020 BKN030 18/08 Q1017
RJOA 190100Z 16004KT 9999 FEW015 BKN025 17/09 Q1018
RJOA 190000Z VRB02KT 9999 FEW015 15/11 Q1018
RJOA 182300Z VRB02KT 9999 BCFG FEW000 SCT090 14/10 Q1018
RJOA 182200Z VRB01KT 9999 BCFG FEW000 BKN110 11/10 Q1017
RJOA 182110Z 08002KT 9999 BCFG FEW000 BKN110 12/10 Q1017 RMK 1ST000 6AC110 A3003 FG BANK SE AND W
RJOA 181300Z 32003KT 300V360 9999 FEW030 15/10 Q1016
RJOA 181200Z 31003KT 9999 FEW030 SCT070 15/11 Q1016
RJOA 181100Z 36003KT 9999 FEW030 15/11 Q1016
RJOA 181000Z 32004KT 9999 FEW030 SCT080 15/11 Q1016
RJOA 180900Z 36005G15KT 9999 FEW020 SCT030 BKN050 15/12 Q1015
RJOA 180844Z 35007KT 9999 -SHRA FEW020 SCT030 BKN060 15/12 Q1015 RMK 1CU020 4CU030 6SC060 A2999
RJOA 180830Z 31008KT 280V360 9999 SHRA FEW020 FEW025CB BKN030 16/11 Q1015 RMK 1CU020 1CB025 6CU030 A2999 CB 10KM NW MOV NE
RJOA 180803Z 35009KT 9999 TS FEW020 FEW025CB BKN030 16/10 Q1015 RMK 1CU020 1CB025 6CU030 A2998 FBL TS 10KM W MOV NE
RJOA 180800Z 35009KT 9999 FEW020 FEW025CB BKN030 16/10 Q1015
RJOA 180732Z 36010KT 9999 -TSRA FEW020 FEW025CB BKN035 17/09 Q1015 RMK 1CU020 1CB025 6CU035 A2998 FBL TS 5KM NW MOV NE
RJOA 180700Z 20004KT 130V270 9999 TS FEW020 FEW025CB SCT035 19/10 Q1014
RJOA 180648Z VRB03KT 9999 TS FEW020 FEW025CB SCT035 19/10 Q1014 RMK 1CU020 1CB025 3CU035 A2996 FBL TS 10KM N MOV NE
RJOA 180600Z 21006KT 160V250 9999 FEW020 SCT035 20/10 Q1014
RJOA 180500Z 21003KT 150V240 9999 FEW020 BKN030 21/11 Q1014
RJOA 180400Z 15006KT 110V230 9999 FEW025 BKN035 19/10 Q1014
RJOA 180300Z VRB04KT 9999 FEW020 BKN030 20/08 Q1015
RJOA 180200Z 18004KT 130V240 9999 FEW020 SCT025 19/11 Q1015
RJOA 180100Z VRB01KT 9999 FEW015 SCT020 17/11 Q1016
RJOA 180000Z VRB02KT 9999 FEW015 SCT020 17/11 Q1016
RJOA 172300Z VRB02KT 9999 FEW020 SCT040 BKN/// 15/10 Q1015
RJOA 172200Z 30004KT 9999 BCFG FEW000 BKN/// 14/10 Q1015
RJOA 172110Z VRB01KT 9999 PRFG FEW000 BKN045 13/10 Q1015 RMK 1ST000 5CU045 A2997 FG BANK SE